createdAt,value
2023-04-17T00:01:26.533Z,9.30
2023-04-17T00:03:53.327Z,9.30
2023-04-17T00:06:20.206Z,9.30
2023-04-17T00:08:46.856Z,9.40
2023-04-17T00:11:13.489Z,9.40
2023-04-17T00:13:40.169Z,9.50
2023-04-17T00:16:08.286Z,9.50
2023-04-17T00:18:35.350Z,9.40
2023-04-17T00:21:02.064Z,9.40
2023-04-17T00:23:28.725Z,9.60
2023-04-17T00:25:55.371Z,9.50
2023-04-17T00:28:22.079Z,9.60
2023-04-17T00:30:48.725Z,9.50
2023-04-17T00:33:15.648Z,9.40
2023-04-17T00:35:42.306Z,9.30
2023-04-17T00:38:09.229Z,9.30
2023-04-17T00:40:36.230Z,9.20
2023-04-17T00:43:06.485Z,9.00
2023-04-17T00:45:33.263Z,8.80
2023-04-17T00:48:01.114Z,8.70
2023-04-17T00:50:28.635Z,8.80
2023-04-17T00:52:55.822Z,8.90
2023-04-17T00:55:22.839Z,9.10
2023-04-17T00:57:50.461Z,9.00
2023-04-17T01:00:18.191Z,8.90
2023-04-17T01:02:48.262Z,9.00
2023-04-17T01:05:15.060Z,9.00
2023-04-17T01:07:42.618Z,8.80
2023-04-17T01:10:10.346Z,8.90
2023-04-17T01:12:37.124Z,8.90
2023-04-17T01:15:05.031Z,9.10
2023-04-17T01:17:32.292Z,9.20
2023-04-17T01:19:59.335Z,9.30
2023-04-17T01:22:26.263Z,9.20
2023-04-17T01:24:57.349Z,9.30
2023-04-17T01:27:26.911Z,9.20
2023-04-17T01:29:54.125Z,9.30
2023-04-17T01:32:21.118Z,9.20
2023-04-17T01:34:47.789Z,9.10
2023-04-17T01:37:14.435Z,9.00
2023-04-17T01:39:41.090Z,9.00
2023-04-17T01:42:07.811Z,9.00
2023-04-17T01:44:36.669Z,9.00
2023-04-17T01:47:03.903Z,8.90
2023-04-17T01:49:30.839Z,8.80
2023-04-17T01:51:57.581Z,8.70
2023-04-17T01:54:24.971Z,8.80
2023-04-17T01:56:51.701Z,8.80
2023-04-17T01:59:18.455Z,8.70
2023-04-17T02:01:45.297Z,8.60
2023-04-17T02:04:12.724Z,8.70
2023-04-17T02:06:39.488Z,8.80
2023-04-17T02:09:06.197Z,8.90
2023-04-17T02:11:32.858Z,8.60
2023-04-17T02:13:59.513Z,8.50
2023-04-17T02:16:26.524Z,8.40
2023-04-17T02:18:53.257Z,8.40
2023-04-17T02:21:20.106Z,8.50
2023-04-17T02:23:47.197Z,8.50
2023-04-17T02:26:14.471Z,8.70
2023-04-17T02:28:45.087Z,8.70
2023-04-17T02:31:12.899Z,8.50
2023-04-17T02:33:39.705Z,8.40
2023-04-17T02:36:07.729Z,8.40
2023-04-17T02:38:39.132Z,8.40
2023-04-17T02:41:06.451Z,8.50
2023-04-17T02:43:33.995Z,8.50
2023-04-17T02:46:01.409Z,8.50
2023-04-17T02:48:28.299Z,8.60
2023-04-17T02:50:55.151Z,8.70
2023-04-17T02:53:22.103Z,8.60
2023-04-17T02:55:49.722Z,8.70
2023-04-17T02:58:19.152Z,8.60
2023-04-17T03:00:46.082Z,8.80
2023-04-17T03:03:16.361Z,8.80
2023-04-17T03:05:43.255Z,8.80
2023-04-17T03:08:10.540Z,8.60
2023-04-17T03:10:44.292Z,8.50
2023-04-17T03:13:10.945Z,8.40
2023-04-17T03:15:37.598Z,8.30
2023-04-17T03:18:04.499Z,8.30
2023-04-17T03:20:31.220Z,8.40
2023-04-17T03:22:57.963Z,8.30
2023-04-17T03:25:24.645Z,8.50
2023-04-17T03:27:56.297Z,8.50
2023-04-17T03:30:28.267Z,8.30
2023-04-17T03:32:57.615Z,8.30
2023-04-17T03:35:24.888Z,8.30
2023-04-17T03:37:51.549Z,8.40
2023-04-17T03:40:18.727Z,8.40
2023-04-17T03:42:46.616Z,8.40
2023-04-17T03:45:13.577Z,8.50
2023-04-17T03:47:40.491Z,8.40
2023-04-17T03:50:07.978Z,8.50
2023-04-17T03:52:39.690Z,8.40
2023-04-17T03:55:07.270Z,8.50
2023-04-17T03:57:34.207Z,8.40
2023-04-17T04:00:00.943Z,8.50
2023-04-17T04:02:34.471Z,8.50
2023-04-17T04:05:01.342Z,8.50
2023-04-17T04:07:28.075Z,8.60
2023-04-17T04:09:55.805Z,8.70
2023-04-17T04:12:23.020Z,8.70
2023-04-17T04:14:49.763Z,8.80
2023-04-17T04:17:16.822Z,8.80
2023-04-17T04:19:43.881Z,8.80
2023-04-17T04:22:13.490Z,8.90
2023-04-17T04:24:47.270Z,8.80
2023-04-17T04:27:18.202Z,8.50
2023-04-17T04:29:48.555Z,8.40
2023-04-17T04:32:17.093Z,8.50
2023-04-17T04:34:46.304Z,8.70
2023-04-17T04:37:16.121Z,8.90
2023-04-17T04:39:44.601Z,9.00
2023-04-17T04:42:21.817Z,9.10
2023-04-17T04:45:06.729Z,9.10
2023-04-17T04:47:34.266Z,9.00
2023-04-17T04:50:01.094Z,9.20
2023-04-17T04:52:27.793Z,9.30
2023-04-17T04:54:58.401Z,9.30
2023-04-17T04:57:25.819Z,9.20
2023-04-17T04:59:56.052Z,9.20
2023-04-17T05:02:29.211Z,9.00
2023-04-17T05:04:56.283Z,9.10
2023-04-17T05:07:23.407Z,9.30
2023-04-17T05:09:50.287Z,9.30
2023-04-17T05:12:17.082Z,9.30
2023-04-17T05:14:44.948Z,9.30
2023-04-17T05:17:12.608Z,9.20
2023-04-17T05:19:39.254Z,9.10
2023-04-17T05:22:08.814Z,9.20
2023-04-17T05:24:42.768Z,9.30
2023-04-17T05:27:09.757Z,9.30
2023-04-17T05:29:37.454Z,9.50
2023-04-17T05:32:04.400Z,9.50
2023-04-17T05:34:54.631Z,9.60
2023-04-17T05:37:25.091Z,9.60
2023-04-17T05:39:52.672Z,9.60
2023-04-17T05:42:19.361Z,9.60
2023-04-17T05:44:46.134Z,9.70
2023-04-17T05:47:13.317Z,9.60
2023-04-17T05:49:40.224Z,9.60
2023-04-17T05:52:06.888Z,9.40
2023-04-17T05:54:37.973Z,9.40
2023-04-17T05:57:04.751Z,9.50
2023-04-17T05:59:32.104Z,9.60
2023-04-17T06:01:59.948Z,9.60
2023-04-17T06:04:27.103Z,9.70
2023-04-17T06:06:53.966Z,9.60
2023-04-17T06:09:21.390Z,9.60
2023-04-17T06:11:49.243Z,9.60
2023-04-17T06:14:16.586Z,9.40
2023-04-17T06:16:43.904Z,9.60
2023-04-17T06:19:11.368Z,9.60
2023-04-17T06:21:38.285Z,9.60
2023-04-17T06:24:05.246Z,9.60
2023-04-17T06:26:31.920Z,9.60
2023-04-17T06:28:58.577Z,9.60
2023-04-17T06:31:27.048Z,9.60
2023-04-17T06:33:53.939Z,9.60
2023-04-17T06:36:26.123Z,9.60
2023-04-17T06:38:56.117Z,9.70
2023-04-17T06:41:22.878Z,9.80
2023-04-17T06:43:49.583Z,9.70
2023-04-17T06:46:16.379Z,9.80
2023-04-17T06:48:43.247Z,9.60
2023-04-17T06:51:10.012Z,9.40
2023-04-17T06:53:36.687Z,9.30
2023-04-17T06:56:03.545Z,9.40
2023-04-17T06:58:30.167Z,9.40
2023-04-17T07:00:56.827Z,9.60
2023-04-17T07:03:23.724Z,9.80
2023-04-17T07:05:50.831Z,9.90
2023-04-17T07:08:19.332Z,9.90
2023-04-17T07:10:46.124Z,9.90
2023-04-17T07:13:12.733Z,10.00
2023-04-17T07:15:39.407Z,10.00
2023-04-17T07:18:06.355Z,9.90
2023-04-17T07:20:33.195Z,10.10
2023-04-17T07:22:59.886Z,10.30
2023-04-17T07:25:27.031Z,10.40
2023-04-17T07:27:54.801Z,10.40
2023-04-17T07:30:21.497Z,10.40
2023-04-17T07:32:48.144Z,10.40
2023-04-17T07:35:14.843Z,10.20
2023-04-17T07:37:41.768Z,10.20
2023-04-17T07:40:10.716Z,10.20
2023-04-17T07:42:37.920Z,10.20
2023-04-17T07:45:06.284Z,10.20
2023-04-17T07:47:33.115Z,10.30
2023-04-17T07:49:59.773Z,10.40
2023-04-17T07:52:26.518Z,10.30
2023-04-17T07:54:53.203Z,10.50
2023-04-17T07:57:21.967Z,10.70
2023-04-17T07:59:48.877Z,11.00
2023-04-17T08:02:16.692Z,11.10
2023-04-17T08:04:44.687Z,11.40
2023-04-17T08:07:12.695Z,11.60
2023-04-17T08:09:41.466Z,11.70
2023-04-17T08:12:09.300Z,11.70
2023-04-17T08:14:36.084Z,11.60
2023-04-17T08:17:03.747Z,11.60
2023-04-17T08:19:30.898Z,11.50
2023-04-17T08:22:03.784Z,11.50
2023-04-17T08:24:31.624Z,11.50
2023-04-17T08:26:58.631Z,11.50
2023-04-17T08:29:27.140Z,11.50
2023-04-17T08:32:10.426Z,11.60
2023-04-17T08:34:44.647Z,11.80
2023-04-17T08:37:11.532Z,12.00
2023-04-17T08:39:38.189Z,12.10
2023-04-17T08:42:18.527Z,12.10
2023-04-17T08:44:48.216Z,12.40
2023-04-17T08:47:17.124Z,12.40
2023-04-17T08:49:45.841Z,12.50
2023-04-17T08:52:12.480Z,12.20
2023-04-17T08:54:39.491Z,11.90
2023-04-17T08:57:06.424Z,11.70
2023-04-17T08:59:33.572Z,11.60
2023-04-17T09:02:05.109Z,11.50
2023-04-17T09:04:36.958Z,11.50
2023-04-17T09:07:08.304Z,11.60
2023-04-17T09:09:47.778Z,11.60
2023-04-17T09:12:14.592Z,11.50
2023-04-17T09:14:41.346Z,11.50
2023-04-17T09:17:08.242Z,11.50
2023-04-17T09:19:35.350Z,11.60
2023-04-17T09:22:21.435Z,11.70
2023-04-17T09:24:48.632Z,11.60
2023-04-17T09:27:25.193Z,11.70
2023-04-17T09:30:04.711Z,11.60
2023-04-17T09:32:33.366Z,11.50
2023-04-17T09:35:02.605Z,11.50
2023-04-17T09:37:51.320Z,11.70
2023-04-17T09:40:22.960Z,11.90
2023-04-17T09:43:02.962Z,11.90
2023-04-17T09:45:40.062Z,11.90
2023-04-17T09:48:09.409Z,11.80
2023-04-17T09:50:38.657Z,11.60
2023-04-17T09:53:07.965Z,11.60
2023-04-17T09:55:38.322Z,11.60
2023-04-17T09:58:07.461Z,11.60
2023-04-17T10:00:36.357Z,11.60
2023-04-17T10:03:03.293Z,11.50
2023-04-17T10:05:32.568Z,11.60
2023-04-17T10:08:00.482Z,11.70
2023-04-17T10:10:33.802Z,11.80
2023-04-17T10:13:02.395Z,11.80
2023-04-17T10:15:29.672Z,11.70
2023-04-17T10:18:24.097Z,11.50
2023-04-17T10:20:53.690Z,11.40
2023-04-17T10:23:31.785Z,11.40
2023-04-17T10:26:26.998Z,11.50
2023-04-17T10:28:55.620Z,11.80
2023-04-17T10:31:25.816Z,12.00
2023-04-17T10:33:55.873Z,12.00
2023-04-17T10:36:42.759Z,11.90
2023-04-17T10:39:13.505Z,11.90
2023-04-17T10:42:03.236Z,12.00
2023-04-17T10:44:34.144Z,12.20
2023-04-17T10:47:10.093Z,12.40
2023-04-17T10:49:54.640Z,12.30
2023-04-17T10:52:40.351Z,12.10
2023-04-17T10:55:23.585Z,12.00
2023-04-17T10:57:58.626Z,12.00
2023-04-17T11:00:49.229Z,12.10
2023-04-17T11:03:16.837Z,12.00
2023-04-17T11:05:47.779Z,12.00
2023-04-17T11:08:15.273Z,12.20
2023-04-17T11:10:41.997Z,12.00
2023-04-17T11:13:08.744Z,11.90
2023-04-17T11:15:35.630Z,12.00
2023-04-17T11:18:03.478Z,12.00
2023-04-17T11:20:32.536Z,11.90
2023-04-17T11:23:03.620Z,11.80
2023-04-17T11:25:33.416Z,12.00
2023-04-17T11:28:02.549Z,12.20
2023-04-17T11:30:32.370Z,12.40
2023-04-17T11:33:04.778Z,12.60
2023-04-17T11:35:36.905Z,12.60
2023-04-17T11:38:18.028Z,12.60
2023-04-17T11:40:48.878Z,12.70
2023-04-17T11:43:16.180Z,12.80
2023-04-17T11:45:44.916Z,12.90
2023-04-17T11:48:14.827Z,13.10
2023-04-17T11:50:43.983Z,12.70
2023-04-17T11:53:14.831Z,12.40
2023-04-17T11:55:42.030Z,12.20
2023-04-17T11:58:10.908Z,12.30
2023-04-17T12:00:39.217Z,12.10
2023-04-17T12:03:35.516Z,12.30
2023-04-17T12:06:04.341Z,12.50
2023-04-17T12:08:31.417Z,12.70
2023-04-17T12:10:58.561Z,12.80
2023-04-17T12:13:26.401Z,12.70
2023-04-17T12:15:53.683Z,12.70
2023-04-17T12:18:20.590Z,12.70
2023-04-17T12:20:47.450Z,13.00
2023-04-17T12:23:14.243Z,13.10
2023-04-17T12:25:40.909Z,13.40
2023-04-17T12:28:07.610Z,13.50
2023-04-17T12:30:36.106Z,13.40
2023-04-17T12:33:02.965Z,13.40
2023-04-17T12:35:29.931Z,13.30
2023-04-17T12:37:56.649Z,13.40
2023-04-17T12:40:25.041Z,13.60
2023-04-17T12:42:52.080Z,13.80
2023-04-17T12:45:19.336Z,13.70
2023-04-17T12:47:46.229Z,13.70
2023-04-17T12:50:13.162Z,13.70
2023-04-17T12:52:41.196Z,13.60
2023-04-17T12:55:09.204Z,13.60
2023-04-17T12:57:36.592Z,13.50
2023-04-17T13:00:06.456Z,13.40
2023-04-17T13:02:33.418Z,13.30
2023-04-17T13:05:00.550Z,13.20
2023-04-17T13:07:28.461Z,12.90
2023-04-17T13:09:55.149Z,12.60
2023-04-17T13:12:21.801Z,12.40
2023-04-17T13:14:48.483Z,12.30
2023-04-17T13:17:17.101Z,12.20
2023-04-17T13:19:44.251Z,12.20
2023-04-17T13:22:10.969Z,12.20
2023-04-17T13:24:38.002Z,12.30
2023-04-17T13:27:04.692Z,12.00
2023-04-17T13:29:31.559Z,11.90
2023-04-17T13:31:58.228Z,11.60
2023-04-17T13:34:24.921Z,11.80
2023-04-17T13:36:51.642Z,12.10
2023-04-17T13:39:18.725Z,11.90
2023-04-17T13:41:45.675Z,11.40
2023-04-17T13:44:13.547Z,11.30
2023-04-17T13:46:41.075Z,11.30
2023-04-17T13:49:07.892Z,11.40
2023-04-17T13:51:34.574Z,11.30
2023-04-17T13:54:01.442Z,11.30
2023-04-17T13:56:28.442Z,11.50
2023-04-17T13:58:55.846Z,11.50
2023-04-17T14:01:22.581Z,11.50
2023-04-17T14:03:49.515Z,11.70
2023-04-17T14:06:18.981Z,11.80
2023-04-17T14:08:46.102Z,12.00
2023-04-17T14:11:13.476Z,12.20
2023-04-17T14:13:40.197Z,12.30
2023-04-17T14:16:07.301Z,12.00
2023-04-17T14:18:34.023Z,12.00
2023-04-17T14:21:00.757Z,12.00
2023-04-17T14:23:27.482Z,12.10
2023-04-17T14:25:54.117Z,12.50
2023-04-17T14:28:21.271Z,12.40
2023-04-17T14:30:48.491Z,12.30
2023-04-17T14:33:15.259Z,12.30
2023-04-17T14:35:42.238Z,12.20
2023-04-17T14:38:08.902Z,12.10
2023-04-17T14:40:35.619Z,12.30
2023-04-17T14:43:02.437Z,12.20
2023-04-17T14:45:29.888Z,12.30
2023-04-17T14:47:57.587Z,12.40
2023-04-17T14:50:24.412Z,12.30
2023-04-17T14:52:51.950Z,12.40
2023-04-17T14:55:18.591Z,12.40
2023-04-17T14:57:46.008Z,12.40
2023-04-17T15:00:13.225Z,12.50
2023-04-17T15:02:40.314Z,12.60
2023-04-17T15:05:08.030Z,12.70
2023-04-17T15:07:35.311Z,12.40
2023-04-17T15:10:02.306Z,12.30
2023-04-17T15:12:29.293Z,12.10
2023-04-17T15:14:56.529Z,11.90
2023-04-17T15:17:23.293Z,11.80
2023-04-17T15:19:50.531Z,11.60
2023-04-17T15:22:17.223Z,11.60
2023-04-17T15:24:43.876Z,11.70
2023-04-17T15:27:11.452Z,11.60
2023-04-17T15:29:38.844Z,11.60
2023-04-17T15:32:05.995Z,11.60
2023-04-17T15:34:34.636Z,11.80
2023-04-17T15:37:06.404Z,12.00
2023-04-17T15:39:36.642Z,12.00
2023-04-17T15:42:04.209Z,12.10
2023-04-17T15:44:31.298Z,12.20
2023-04-17T15:46:57.984Z,12.20
2023-04-17T15:49:25.081Z,12.20
2023-04-17T15:51:52.911Z,12.10
2023-04-17T15:54:19.648Z,12.00
2023-04-17T15:56:46.629Z,12.00
2023-04-17T15:59:13.670Z,11.90
2023-04-17T16:01:40.704Z,11.70
2023-04-17T16:04:07.531Z,11.60
2023-04-17T16:06:34.574Z,11.70
2023-04-17T16:09:01.531Z,11.60
2023-04-17T16:11:28.169Z,11.40
2023-04-17T16:13:54.849Z,11.50
2023-04-17T16:16:21.569Z,11.50
2023-04-17T16:18:48.262Z,11.50
2023-04-17T16:21:15.117Z,11.30
2023-04-17T16:23:41.871Z,11.10
2023-04-17T16:26:08.716Z,11.00
2023-04-17T16:28:35.472Z,11.00
2023-04-17T16:31:02.165Z,11.10
2023-04-17T16:33:29.099Z,11.10
2023-04-17T16:35:57.111Z,10.90
2023-04-17T16:38:24.118Z,11.10
2023-04-17T16:40:53.360Z,11.30
2023-04-17T16:43:20.986Z,11.30
2023-04-17T16:45:48.717Z,11.50
2023-04-17T16:48:16.224Z,11.70
2023-04-17T16:50:43.031Z,11.70
2023-04-17T16:53:09.703Z,11.60
2023-04-17T16:55:36.671Z,11.50
2023-04-17T16:58:04.364Z,11.30
2023-04-17T17:00:31.687Z,11.30
2023-04-17T17:02:58.552Z,11.30
2023-04-17T17:05:25.816Z,11.10
2023-04-17T17:07:52.987Z,11.10
2023-04-17T17:10:19.856Z,11.20
2023-04-17T17:12:46.554Z,11.30
2023-04-17T17:15:13.329Z,11.30
2023-04-17T17:17:40.173Z,11.30
2023-04-17T17:20:07.672Z,11.10
2023-04-17T17:22:34.448Z,10.80
2023-04-17T17:25:01.081Z,10.60
2023-04-17T17:27:27.854Z,10.30
2023-04-17T17:29:56.129Z,10.30
2023-04-17T17:32:24.256Z,10.10
2023-04-17T17:34:52.520Z,10.00
2023-04-17T17:37:19.943Z,9.80
2023-04-17T17:39:46.628Z,9.80
2023-04-17T17:42:13.346Z,9.80
2023-04-17T17:44:39.992Z,9.80
2023-04-17T17:47:08.048Z,9.80
2023-04-17T17:49:34.962Z,10.00
2023-04-17T17:52:01.635Z,10.10
2023-04-17T17:54:28.336Z,10.10
2023-04-17T17:56:55.162Z,10.20
2023-04-17T17:59:22.098Z,10.30
2023-04-17T18:01:48.826Z,10.40
2023-04-17T18:04:16.007Z,10.60
2023-04-17T18:06:43.165Z,10.70
2023-04-17T18:09:09.811Z,10.70
2023-04-17T18:11:37.560Z,10.30
2023-04-17T18:14:04.232Z,10.00
2023-04-17T18:16:32.901Z,9.90
2023-04-17T18:19:03.204Z,9.90
2023-04-17T18:21:31.215Z,10.00
2023-04-17T18:23:58.263Z,10.10
2023-04-17T18:26:26.189Z,10.00
2023-04-17T18:28:52.882Z,9.70
2023-04-17T18:31:21.794Z,9.60
2023-04-17T18:33:48.673Z,9.70
2023-04-17T18:36:15.283Z,9.60
2023-04-17T18:38:42.008Z,9.60
2023-04-17T18:41:09.179Z,9.50
2023-04-17T18:43:36.039Z,9.50
2023-04-17T18:46:04.577Z,9.50
2023-04-17T18:48:31.266Z,9.50
2023-04-17T18:50:58.354Z,9.50
2023-04-17T18:53:25.604Z,9.50
2023-04-17T18:55:52.452Z,9.60
2023-04-17T18:58:19.108Z,9.60
2023-04-17T19:00:45.861Z,9.60
2023-04-17T19:03:12.645Z,9.90
2023-04-17T19:05:39.343Z,10.10
2023-04-17T19:08:06.043Z,10.10
2023-04-17T19:10:32.757Z,10.20
2023-04-17T19:12:59.432Z,10.10
2023-04-17T19:15:26.713Z,10.10
2023-04-17T19:17:53.556Z,10.30
2023-04-17T19:20:22.590Z,10.20
2023-04-17T19:22:49.335Z,10.30
2023-04-17T19:25:17.852Z,10.30
2023-04-17T19:27:44.556Z,10.40
2023-04-17T19:30:11.625Z,10.50
2023-04-17T19:32:38.634Z,10.50
2023-04-17T19:35:05.989Z,10.60
2023-04-17T19:37:33.320Z,10.50
2023-04-17T19:40:01.314Z,10.50
2023-04-17T19:42:29.191Z,10.50
2023-04-17T19:44:56.020Z,10.50
2023-04-17T19:47:23.995Z,10.50
2023-04-17T19:49:50.753Z,10.30
2023-04-17T19:52:17.725Z,10.30
2023-04-17T19:54:45.470Z,10.30
2023-04-17T19:57:12.365Z,10.10
2023-04-17T19:59:39.192Z,10.20
2023-04-17T20:02:08.904Z,10.10
2023-04-17T20:04:35.553Z,9.80
2023-04-17T20:07:02.750Z,9.80
2023-04-17T20:09:29.491Z,9.80
2023-04-17T20:11:56.581Z,9.70
2023-04-17T20:14:24.797Z,9.60
2023-04-17T20:16:51.544Z,9.50
2023-04-17T20:19:18.275Z,9.50
2023-04-17T20:21:46.747Z,9.40
2023-04-17T20:24:15.629Z,9.30
2023-04-17T20:26:46.884Z,9.30
2023-04-17T20:29:13.694Z,9.30
2023-04-17T20:31:40.708Z,9.20
2023-04-17T20:34:07.426Z,9.30
2023-04-17T20:36:34.187Z,9.20
2023-04-17T20:39:01.083Z,9.30
2023-04-17T20:41:27.713Z,9.30
2023-04-17T20:43:59.025Z,9.20
2023-04-17T20:46:26.644Z,9.30
2023-04-17T20:48:53.449Z,9.20
2023-04-17T20:51:27.594Z,9.40
2023-04-17T20:53:54.920Z,9.20
2023-04-17T20:56:22.964Z,9.10
2023-04-17T20:58:50.029Z,9.00
2023-04-17T21:01:17.079Z,9.10
2023-04-17T21:03:44.385Z,9.10
2023-04-17T21:06:11.366Z,9.10
2023-04-17T21:08:38.171Z,9.00
2023-04-17T21:11:05.384Z,8.90
2023-04-17T21:13:32.569Z,8.70
2023-04-17T21:15:59.335Z,8.80
2023-04-17T21:18:25.992Z,8.80
2023-04-17T21:20:52.747Z,8.60
2023-04-17T21:23:19.462Z,8.50
2023-04-17T21:25:46.496Z,8.30
2023-04-17T21:28:16.220Z,8.30
2023-04-17T21:30:42.869Z,8.40
2023-04-17T21:33:09.496Z,8.40
2023-04-17T21:35:36.667Z,8.30
2023-04-17T21:38:03.354Z,8.30
2023-04-17T21:40:33.372Z,8.40
2023-04-17T21:43:01.353Z,8.50
2023-04-17T21:45:28.185Z,8.40
2023-04-17T21:47:55.760Z,8.50
2023-04-17T21:50:22.734Z,8.50
2023-04-17T21:52:49.609Z,8.60
2023-04-17T21:55:16.295Z,8.70
2023-04-17T21:57:46.342Z,8.60
2023-04-17T22:00:14.373Z,8.80
2023-04-17T22:02:41.227Z,8.70
2023-04-17T22:05:08.218Z,8.70
2023-04-17T22:07:43.975Z,8.80
2023-04-17T22:10:18.251Z,8.70
2023-04-17T22:12:44.960Z,8.40
2023-04-17T22:15:11.758Z,8.40
2023-04-17T22:17:39.559Z,8.40
2023-04-17T22:20:07.094Z,8.50
2023-04-17T22:22:33.714Z,8.60
2023-04-17T22:25:00.356Z,8.60
2023-04-17T22:27:26.966Z,8.50
2023-04-17T22:29:53.836Z,8.60
2023-04-17T22:32:20.608Z,8.50
2023-04-17T22:34:48.714Z,8.50
2023-04-17T22:37:15.543Z,8.50
2023-04-17T22:39:42.217Z,8.60
2023-04-17T22:42:08.893Z,8.50
2023-04-17T22:44:35.692Z,8.50
2023-04-17T22:47:02.310Z,8.60
2023-04-17T22:49:28.941Z,8.70
2023-04-17T22:51:55.628Z,8.70
2023-04-17T22:54:23.304Z,8.70
2023-04-17T22:56:50.602Z,8.80
2023-04-17T22:59:17.231Z,8.70
2023-04-17T23:01:44.349Z,8.40
2023-04-17T23:04:11.112Z,8.30
2023-04-17T23:06:37.928Z,8.20
2023-04-17T23:09:04.839Z,8.10
2023-04-17T23:11:32.493Z,8.10
2023-04-17T23:13:59.449Z,7.90
2023-04-17T23:16:26.119Z,7.80
2023-04-17T23:18:52.865Z,7.90
2023-04-17T23:21:19.613Z,8.10
2023-04-17T23:23:48.144Z,8.00
2023-04-17T23:26:15.646Z,7.90
2023-04-17T23:28:42.745Z,8.00
2023-04-17T23:31:09.518Z,7.80
2023-04-17T23:33:36.322Z,7.80
2023-04-17T23:36:03.109Z,7.80
2023-04-17T23:38:29.975Z,7.80
2023-04-17T23:40:56.787Z,7.90
2023-04-17T23:43:23.423Z,7.80
2023-04-17T23:45:50.088Z,7.90
2023-04-17T23:48:16.779Z,7.90
2023-04-17T23:50:44.104Z,7.90
2023-04-17T23:53:10.780Z,7.90
2023-04-17T23:55:37.485Z,7.90
2023-04-17T23:58:04.122Z,8.00
